Arlington, Iowa
Current Conditions -  °F | °C
As of 2:15 PM on Monday 22 Dec 2014 (Local Time) from KOLZ Reporting Station
Unknown Precip Unknown Precip  
Wind Chill: 29°   Ceiling: 700
Heat Index: 37°   Visibility: 2.5mi
Dew Point: 36°   Wind: 15mph
Humidity: 93%   Direction: 100°E
Pressure: 29.56"   Gusts: NA
Location:  42.75°N, 91.67°W
Report Text: KOLZ 222015Z AUTO 10013KT 2 1/2SM -UP BKN007 OVC019 03/02 A2956 RMK AO2
Loading
Personal Weather Stations






























Interactive Weather Map New forecast layout! Learn more

10-Day Weather Forecast

Advertisements
Track Severe Weather on mobile